New Texas, Pennsylvania
Current Conditions -  °F | °C
As of 10:15 AM on Monday 24 Nov 2014 (Local Time) from KMQS Reporting Station
Overcast Overcast  
Wind Chill: 64°   Ceiling: 1400
Heat Index: 64°   Visibility: 10mi
Dew Point: 61°   Wind: 9mph
Humidity: 88%   Direction: 200°SSW
Pressure: 29.68"   Gusts: 18mph
Location:  39.7675°N, 76.1818°W
Report Text: KMQS 241515Z AUTO 20008G16KT 140V260 10SM BKN014 BKN019 OVC025 18/16 A2968 RMK AO2
Loading
Personal Weather Stations






























Interactive Weather Map New forecast layout! Learn more

10-Day Weather Forecast

Advertisements
Track Severe Weather on mobile